Watton, MI (49970)

5:10 AM EDT on July 25, 2014 (GMT -0400)
Kings Land O'Lakes (KLNL) Elev 1706 ft | 46.15 °N, 89.21 °W | Change Station

Current weather conditions updated 15 minutes ago

Partly Cloudy
Partly Cloudy
55 °F
Feels Like 55 °F
N
0
Wind Variable Wind from North

Today is forecast to be nearly the same temperature as yesterday. Showers and thunderstorms late tonight.

Today
High -- | Low -- °F
--% Chance of Precip.
Yesterday
High -- | Low -- °F
Precip. -- in
6:27 AM 9:34 PM
Waning Crescent, 2% visible
Pressure 29.95 in
Visibility 10.0 miles
Clouds Scattered Clouds 4900 ft
Dew Point 54 °F
Humidity 97%
Rainfall 0.00 in
Snow Depth Not available.
UV 0 out of 12
Pollen 6.10 out of 12
Air Quality Not available.
Flu Activity Not available.
METAR KLNL 250855Z AUTO 00000KT 10SM SCT049 13/12 A2995 RMK AO2 T01270122

More Conditions Fewer Conditions

Pressure 29.95 in
Visibility 10.0 miles
Clouds Scattered Clouds 4900 ft
Dew Point 54 °F
Humidity 97%
Rainfall 0.00 in
Snow Depth Not available.
UV 0 out of 12
Pollen 6.10 out of 12
Air Quality Not available.
Flu Activity Not available.
METAR KLNL 250855Z AUTO 00000KT 10SM SCT049 13/12 A2995 RMK AO2 T01270122

More Conditions Fewer Conditions

10-Day Weather Forecast

Almanac

Astronomy

Jul. 25, 2014 Rise Set
Actual Time 6:27 AM EDT 9:34 PM EDT
Civil Twilight 5:51 AM EDT 10:10 PM EDT
Nautical Twilight 5:04 AM EDT 10:56 PM EDT
Astronomical Twilight 4:07 AM EDT 11:53 PM EDT
Moon 5:28 AM EDT 8:27 PM EDT
Length of Visible Light 16h 18m
Length of Day
15h 06m
Tomorrow will be 2m 17s shorter.
Waning Crescent, 2% of the Moon is Illuminated
Today
Waning Crescent
Jul 26
New
Aug 3
First Quarter
Aug 10
Full
Aug 17
Last Quarter

Today's Extremes

State Highs State Lows

Community

WunderPhotos

Upload Photos

1,737,276 photos uploaded!

Nearby

Snow Depth

Station Depth Elevation
No new snow has been reported.

Earthquake Activity

City Distance Mag. Time & Date
No recent earthquake activity has been reported nearby.
Minimum magnitude displayed is 2.5.

Coastal Water Temperatures

Place Temperature
No Stations Reporting

Nearby Weather Stations

Station Location Temp. Windchill Dew Point Humidity Wind Precip. Elev Updated Type
RAWS KENTON MI, Nisula, MI 49 °F 49 °F 49 °F 100% North  at  0 mph 0.00 in / hr 1262 ft 3:56 AM EDT MADIS
MesoWest Trout Creek ESS , Kenton, MI 54 °F - 53 °F 96% NW  at  2 mph 0.00 in / hr 1521 ft 1:35 AM EDT MADIS
MesoWest Nisula ESS , Mass City, MI 54 °F - 54 °F 99% North  at  0 mph 0.00 in / hr 1184 ft 1:35 AM EDT MADIS

Show More Stations Show Fewer Stations